sensor_id;sensor_type;location;lat;lon;timestamp;P1;durP1;ratioP1;P2;durP2;ratioP2
48241;SDS011;34041;51.812;4.622;2023-03-12T00:00:48;7.63;;;3.78;;
48241;SDS011;34041;51.812;4.622;2023-03-12T00:03:49;10.50;;;4.47;;
48241;SDS011;34041;51.812;4.622;2023-03-12T00:06:50;8.23;;;4.15;;
48241;SDS011;34041;51.812;4.622;2023-03-12T00:09:50;8.57;;;3.70;;
48241;SDS011;34041;51.812;4.622;2023-03-12T00:12:51;7.65;;;3.90;;
48241;SDS011;34041;51.812;4.622;2023-03-12T00:15:51;7.05;;;4.05;;
48241;SDS011;34041;51.812;4.622;2023-03-12T00:18:52;7.37;;;4.00;;
48241;SDS011;34041;51.812;4.622;2023-03-12T00:21:53;7.90;;;4.13;;
48241;SDS011;34041;51.812;4.622;2023-03-12T00:24:54;5.88;;;3.70;;
48241;SDS011;34041;51.812;4.622;2023-03-12T00:27:55;7.50;;;3.80;;
48241;SDS011;34041;51.812;4.622;2023-03-12T00:30:55;7.40;;;4.57;;
48241;SDS011;34041;51.812;4.622;2023-03-12T00:33:57;7.55;;;3.33;;
48241;SDS011;34041;51.812;4.622;2023-03-12T00:36:58;4.88;;;3.75;;
48241;SDS011;34041;51.812;4.622;2023-03-12T00:39:58;7.60;;;3.87;;
48241;SDS011;34041;51.812;4.622;2023-03-12T00:43:00;9.65;;;4.22;;
48241;SDS011;34041;51.812;4.622;2023-03-12T00:46:00;4.50;;;3.43;;
48241;SDS011;34041;51.812;4.622;2023-03-12T00:49:01;6.57;;;3.83;;
48241;SDS011;34041;51.812;4.622;2023-03-12T00:52:01;6.27;;;3.77;;
48241;SDS011;34041;51.812;4.622;2023-03-12T00:55:01;5.70;;;3.93;;
48241;SDS011;34041;51.812;4.622;2023-03-12T00:58:01;8.60;;;4.22;;
48241;SDS011;34041;51.812;4.622;2023-03-12T01:01:02;6.93;;;3.97;;
48241;SDS011;34041;51.812;4.622;2023-03-12T01:04:02;4.47;;;3.22;;
48241;SDS011;34041;51.812;4.622;2023-03-12T01:07:03;4.72;;;3.38;;
48241;SDS011;34041;51.812;4.622;2023-03-12T01:10:03;7.85;;;3.88;;
48241;SDS011;34041;51.812;4.622;2023-03-12T01:13:03;5.78;;;4.15;;
48241;SDS011;34041;51.812;4.622;2023-03-12T01:16:04;6.23;;;3.80;;
48241;SDS011;34041;51.812;4.622;2023-03-12T01:19:04;6.13;;;3.33;;
48241;SDS011;34041;51.812;4.622;2023-03-12T01:22:04;8.77;;;3.75;;
48241;SDS011;34041;51.812;4.622;2023-03-12T01:25:05;7.47;;;3.50;;
48241;SDS011;34041;51.812;4.622;2023-03-12T01:28:05;5.07;;;3.28;;
48241;SDS011;34041;51.812;4.622;2023-03-12T01:31:06;4.83;;;3.17;;
48241;SDS011;34041;51.812;4.622;2023-03-12T01:34:08;11.40;;;3.83;;
48241;SDS011;34041;51.812;4.622;2023-03-12T01:37:09;5.65;;;3.58;;
48241;SDS011;34041;51.812;4.622;2023-03-12T01:40:13;6.63;;;3.13;;
48241;SDS011;34041;51.812;4.622;2023-03-12T01:43:20;6.35;;;3.00;;
48241;SDS011;34041;51.812;4.622;2023-03-12T01:46:25;5.25;;;3.60;;
48241;SDS011;34041;51.812;4.622;2023-03-12T01:49:29;6.18;;;3.47;;
48241;SDS011;34041;51.812;4.622;2023-03-12T01:52:31;4.63;;;3.20;;
48241;SDS011;34041;51.812;4.622;2023-03-12T01:55:32;5.05;;;3.08;;
48241;SDS011;34041;51.812;4.622;2023-03-12T01:58:33;4.03;;;2.63;;
48241;SDS011;34041;51.812;4.622;2023-03-12T02:01:35;5.57;;;3.08;;
48241;SDS011;34041;51.812;4.622;2023-03-12T02:04:36;6.15;;;4.00;;
48241;SDS011;34041;51.812;4.622;2023-03-12T02:07:37;5.63;;;3.22;;
48241;SDS011;34041;51.812;4.622;2023-03-12T02:10:38;5.85;;;2.80;;
48241;SDS011;34041;51.812;4.622;2023-03-12T02:13:38;4.70;;;2.83;;
48241;SDS011;34041;51.812;4.622;2023-03-12T02:16:39;7.88;;;3.25;;
48241;SDS011;34041;51.812;4.622;2023-03-12T02:22:46;6.28;;;3.20;;
48241;SDS011;34041;51.812;4.622;2023-03-12T02:25:49;6.15;;;2.85;;
48241;SDS011;34041;51.812;4.622;2023-03-12T02:28:50;6.75;;;2.85;;
48241;SDS011;34041;51.812;4.622;2023-03-12T02:31:51;4.75;;;3.63;;
48241;SDS011;34041;51.812;4.622;2023-03-12T02:34:54;4.22;;;2.97;;
48241;SDS011;34041;51.812;4.622;2023-03-12T02:37:55;4.25;;;2.97;;
48241;SDS011;34041;51.812;4.622;2023-03-12T02:40:55;5.75;;;2.88;;
48241;SDS011;34041;51.812;4.622;2023-03-12T02:46:58;4.83;;;3.77;;
48241;SDS011;34041;51.812;4.622;2023-03-12T02:49:58;4.10;;;2.75;;
48241;SDS011;34041;51.812;4.622;2023-03-12T02:52:59;5.77;;;2.90;;
48241;SDS011;34041;51.812;4.622;2023-03-12T02:55:59;5.47;;;3.30;;
48241;SDS011;34041;51.812;4.622;2023-03-12T02:58:59;6.00;;;3.38;;
48241;SDS011;34041;51.812;4.622;2023-03-12T03:01:59;6.38;;;3.20;;
48241;SDS011;34041;51.812;4.622;2023-03-12T03:05:00;6.72;;;3.50;;
48241;SDS011;34041;51.812;4.622;2023-03-12T03:08:00;6.97;;;3.37;;
48241;SDS011;34041;51.812;4.622;2023-03-12T03:11:00;6.80;;;3.30;;
48241;SDS011;34041;51.812;4.622;2023-03-12T03:14:02;5.78;;;3.22;;
48241;SDS011;34041;51.812;4.622;2023-03-12T03:17:03;5.57;;;2.55;;
48241;SDS011;34041;51.812;4.622;2023-03-12T03:20:03;5.78;;;2.97;;
48241;SDS011;34041;51.812;4.622;2023-03-12T03:23:07;4.18;;;2.50;;
48241;SDS011;34041;51.812;4.622;2023-03-12T03:26:07;4.57;;;2.90;;
48241;SDS011;34041;51.812;4.622;2023-03-12T03:29:07;5.27;;;3.33;;
48241;SDS011;34041;51.812;4.622;2023-03-12T03:32:07;6.53;;;3.00;;
48241;SDS011;34041;51.812;4.622;2023-03-12T03:35:08;5.00;;;3.40;;
48241;SDS011;34041;51.812;4.622;2023-03-12T03:38:08;6.13;;;3.13;;
48241;SDS011;34041;51.812;4.622;2023-03-12T03:41:08;4.40;;;2.95;;
48241;SDS011;34041;51.812;4.622;2023-03-12T03:44:09;5.40;;;3.60;;
48241;SDS011;34041;51.812;4.622;2023-03-12T03:47:09;5.25;;;2.90;;
48241;SDS011;34041;51.812;4.622;2023-03-12T03:50:09;6.40;;;3.00;;
48241;SDS011;34041;51.812;4.622;2023-03-12T03:53:10;5.43;;;2.47;;
48241;SDS011;34041;51.812;4.622;2023-03-12T03:56:12;7.70;;;3.67;;
48241;SDS011;34041;51.812;4.622;2023-03-12T03:59:13;6.38;;;3.13;;
48241;SDS011;34041;51.812;4.622;2023-03-12T04:02:13;4.47;;;2.97;;
48241;SDS011;34041;51.812;4.622;2023-03-12T04:05:14;5.37;;;2.83;;
48241;SDS011;34041;51.812;4.622;2023-03-12T04:08:18;4.78;;;2.83;;
48241;SDS011;34041;51.812;4.622;2023-03-12T04:11:19;7.77;;;3.10;;
48241;SDS011;34041;51.812;4.622;2023-03-12T04:14:19;5.28;;;3.10;;
48241;SDS011;34041;51.812;4.622;2023-03-12T04:17:20;4.70;;;2.27;;
48241;SDS011;34041;51.812;4.622;2023-03-12T04:20:20;4.57;;;3.03;;
48241;SDS011;34041;51.812;4.622;2023-03-12T04:23:20;7.53;;;2.97;;
48241;SDS011;34041;51.812;4.622;2023-03-12T04:26:20;5.65;;;2.63;;
48241;SDS011;34041;51.812;4.622;2023-03-12T04:29:21;5.43;;;2.90;;
48241;SDS011;34041;51.812;4.622;2023-03-12T04:32:21;7.00;;;3.00;;
48241;SDS011;34041;51.812;4.622;2023-03-12T04:35:21;5.97;;;3.25;;
48241;SDS011;34041;51.812;4.622;2023-03-12T04:38:24;6.10;;;2.92;;
48241;SDS011;34041;51.812;4.622;2023-03-12T04:41:24;5.93;;;3.47;;
48241;SDS011;34041;51.812;4.622;2023-03-12T04:44:25;4.60;;;2.93;;
48241;SDS011;34041;51.812;4.622;2023-03-12T04:47:25;7.43;;;2.83;;
48241;SDS011;34041;51.812;4.622;2023-03-12T04:50:25;7.13;;;3.33;;
48241;SDS011;34041;51.812;4.622;2023-03-12T04:53:25;4.75;;;3.38;;
48241;SDS011;34041;51.812;4.622;2023-03-12T04:56:26;6.43;;;3.47;;
48241;SDS011;34041;51.812;4.622;2023-03-12T04:59:26;5.10;;;2.40;;
48241;SDS011;34041;51.812;4.622;2023-03-12T05:02:26;4.17;;;3.00;;
48241;SDS011;34041;51.812;4.622;2023-03-12T05:05:26;4.47;;;2.80;;
48241;SDS011;34041;51.812;4.622;2023-03-12T05:08:27;4.28;;;2.80;;
48241;SDS011;34041;51.812;4.622;2023-03-12T05:11:27;6.88;;;3.22;;
48241;SDS011;34041;51.812;4.622;2023-03-12T05:14:27;3.78;;;2.25;;
48241;SDS011;34041;51.812;4.622;2023-03-12T05:17:27;6.45;;;3.28;;
48241;SDS011;34041;51.812;4.622;2023-03-12T05:20:28;5.38;;;3.17;;
48241;SDS011;34041;51.812;4.622;2023-03-12T05:23:28;6.90;;;3.40;;
48241;SDS011;34041;51.812;4.622;2023-03-12T05:26:29;4.78;;;3.10;;
48241;SDS011;34041;51.812;4.622;2023-03-12T05:29:33;6.70;;;3.60;;
48241;SDS011;34041;51.812;4.622;2023-03-12T05:32:34;3.95;;;2.63;;
48241;SDS011;34041;51.812;4.622;2023-03-12T05:35:34;6.13;;;3.05;;
48241;SDS011;34041;51.812;4.622;2023-03-12T05:38:35;5.03;;;2.53;;
48241;SDS011;34041;51.812;4.622;2023-03-12T05:41:35;3.70;;;2.65;;
48241;SDS011;34041;51.812;4.622;2023-03-12T05:44:35;5.07;;;2.80;;
48241;SDS011;34041;51.812;4.622;2023-03-12T05:47:36;4.67;;;2.50;;
48241;SDS011;34041;51.812;4.622;2023-03-12T05:50:36;3.37;;;2.40;;
48241;SDS011;34041;51.812;4.622;2023-03-12T05:53:36;5.60;;;3.42;;
48241;SDS011;34041;51.812;4.622;2023-03-12T05:56:36;6.13;;;3.17;;
48241;SDS011;34041;51.812;4.622;2023-03-12T05:59:37;5.05;;;3.67;;
48241;SDS011;34041;51.812;4.622;2023-03-12T06:02:37;5.27;;;2.93;;
48241;SDS011;34041;51.812;4.622;2023-03-12T06:05:37;6.13;;;3.30;;
48241;SDS011;34041;51.812;4.622;2023-03-12T06:08:38;5.65;;;2.58;;
48241;SDS011;34041;51.812;4.622;2023-03-12T06:11:38;4.35;;;2.80;;
48241;SDS011;34041;51.812;4.622;2023-03-12T06:14:38;4.60;;;3.10;;
48241;SDS011;34041;51.812;4.622;2023-03-12T06:17:39;4.90;;;2.90;;
48241;SDS011;34041;51.812;4.622;2023-03-12T06:20:39;6.00;;;2.70;;
48241;SDS011;34041;51.812;4.622;2023-03-12T06:23:39;4.65;;;2.88;;
48241;SDS011;34041;51.812;4.622;2023-03-12T06:26:40;3.83;;;2.95;;
48241;SDS011;34041;51.812;4.622;2023-03-12T06:29:40;6.90;;;3.67;;
48241;SDS011;34041;51.812;4.622;2023-03-12T06:32:40;6.25;;;3.17;;
48241;SDS011;34041;51.812;4.622;2023-03-12T06:35:41;4.40;;;2.57;;
48241;SDS011;34041;51.812;4.622;2023-03-12T06:38:41;6.20;;;2.83;;
48241;SDS011;34041;51.812;4.622;2023-03-12T06:41:41;4.90;;;3.25;;
48241;SDS011;34041;51.812;4.622;2023-03-12T06:44:42;4.07;;;2.88;;
48241;SDS011;34041;51.812;4.622;2023-03-12T06:47:42;5.90;;;3.20;;
48241;SDS011;34041;51.812;4.622;2023-03-12T06:50:42;6.43;;;3.10;;
48241;SDS011;34041;51.812;4.622;2023-03-12T06:53:43;5.80;;;3.07;;
48241;SDS011;34041;51.812;4.622;2023-03-12T06:56:43;8.15;;;2.47;;
48241;SDS011;34041;51.812;4.622;2023-03-12T06:59:44;4.38;;;2.50;;
48241;SDS011;34041;51.812;4.622;2023-03-12T07:02:45;7.07;;;4.37;;
48241;SDS011;34041;51.812;4.622;2023-03-12T07:05:46;5.07;;;3.43;;
48241;SDS011;34041;51.812;4.622;2023-03-12T07:08:46;6.30;;;3.58;;
48241;SDS011;34041;51.812;4.622;2023-03-12T07:11:47;4.97;;;3.13;;
48241;SDS011;34041;51.812;4.622;2023-03-12T07:14:47;4.35;;;2.85;;
48241;SDS011;34041;51.812;4.622;2023-03-12T07:17:47;7.60;;;3.40;;
48241;SDS011;34041;51.812;4.622;2023-03-12T07:20:47;6.60;;;3.40;;
48241;SDS011;34041;51.812;4.622;2023-03-12T07:23:48;5.18;;;3.72;;
48241;SDS011;34041;51.812;4.622;2023-03-12T07:26:49;4.82;;;3.03;;
48241;SDS011;34041;51.812;4.622;2023-03-12T07:29:49;4.80;;;3.13;;
48241;SDS011;34041;51.812;4.622;2023-03-12T07:32:49;3.77;;;2.73;;
48241;SDS011;34041;51.812;4.622;2023-03-12T07:35:49;5.83;;;3.97;;
48241;SDS011;34041;51.812;4.622;2023-03-12T07:38:50;5.07;;;3.43;;
48241;SDS011;34041;51.812;4.622;2023-03-12T07:41:50;5.25;;;3.08;;
48241;SDS011;34041;51.812;4.622;2023-03-12T07:44:50;4.70;;;2.83;;
48241;SDS011;34041;51.812;4.622;2023-03-12T07:47:50;4.67;;;3.90;;
48241;SDS011;34041;51.812;4.622;2023-03-12T07:50:50;7.10;;;4.87;;
48241;SDS011;34041;51.812;4.622;2023-03-12T07:53:51;5.78;;;3.60;;
48241;SDS011;34041;51.812;4.622;2023-03-12T07:56:51;4.80;;;3.63;;
48241;SDS011;34041;51.812;4.622;2023-03-12T07:59:51;5.75;;;3.95;;
48241;SDS011;34041;51.812;4.622;2023-03-12T08:02:52;4.93;;;4.18;;
48241;SDS011;34041;51.812;4.622;2023-03-12T08:05:56;5.03;;;3.95;;
48241;SDS011;34041;51.812;4.622;2023-03-12T08:08:56;5.80;;;4.05;;
48241;SDS011;34041;51.812;4.622;2023-03-12T08:11:56;5.83;;;3.87;;
48241;SDS011;34041;51.812;4.622;2023-03-12T08:14:56;7.13;;;4.60;;
48241;SDS011;34041;51.812;4.622;2023-03-12T08:17:57;7.13;;;4.65;;
48241;SDS011;34041;51.812;4.622;2023-03-12T08:20:57;8.70;;;5.25;;
48241;SDS011;34041;51.812;4.622;2023-03-12T08:23:57;9.10;;;6.05;;
48241;SDS011;34041;51.812;4.622;2023-03-12T08:26:57;7.95;;;5.07;;
48241;SDS011;34041;51.812;4.622;2023-03-12T08:29:58;7.70;;;5.27;;
48241;SDS011;34041;51.812;4.622;2023-03-12T08:32:58;6.63;;;5.80;;
48241;SDS011;34041;51.812;4.622;2023-03-12T08:35:58;7.03;;;5.90;;
48241;SDS011;34041;51.812;4.622;2023-03-12T08:38:59;7.43;;;5.90;;
48241;SDS011;34041;51.812;4.622;2023-03-12T08:41:59;8.37;;;7.00;;
48241;SDS011;34041;51.812;4.622;2023-03-12T08:44:59;9.35;;;6.47;;
48241;SDS011;34041;51.812;4.622;2023-03-12T08:47:59;7.97;;;6.63;;
48241;SDS011;34041;51.812;4.622;2023-03-12T08:51:00;9.83;;;6.90;;
48241;SDS011;34041;51.812;4.622;2023-03-12T08:54:03;7.85;;;6.97;;
48241;SDS011;34041;51.812;4.622;2023-03-12T08:57:04;8.10;;;6.68;;
48241;SDS011;34041;51.812;4.622;2023-03-12T09:00:04;10.13;;;7.50;;
48241;SDS011;34041;51.812;4.622;2023-03-12T09:03:07;8.38;;;7.28;;
48241;SDS011;34041;51.812;4.622;2023-03-12T09:06:09;12.52;;;9.10;;
48241;SDS011;34041;51.812;4.622;2023-03-12T09:09:12;10.85;;;8.55;;
48241;SDS011;34041;51.812;4.622;2023-03-12T09:12:12;7.95;;;7.15;;
48241;SDS011;34041;51.812;4.622;2023-03-12T09:15:12;11.77;;;8.13;;
48241;SDS011;34041;51.812;4.622;2023-03-12T09:18:13;8.37;;;7.57;;
48241;SDS011;34041;51.812;4.622;2023-03-12T09:21:13;8.05;;;7.13;;
48241;SDS011;34041;51.812;4.622;2023-03-12T09:24:13;9.07;;;7.37;;
48241;SDS011;34041;51.812;4.622;2023-03-12T09:27:14;9.32;;;7.15;;
48241;SDS011;34041;51.812;4.622;2023-03-12T09:30:18;9.27;;;7.90;;
48241;SDS011;34041;51.812;4.622;2023-03-12T09:33:18;8.70;;;7.65;;
48241;SDS011;34041;51.812;4.622;2023-03-12T09:36:19;9.63;;;7.20;;
48241;SDS011;34041;51.812;4.622;2023-03-12T09:39:19;10.77;;;6.78;;
48241;SDS011;34041;51.812;4.622;2023-03-12T09:42:22;8.82;;;7.32;;
48241;SDS011;34041;51.812;4.622;2023-03-12T09:45:23;8.98;;;7.07;;
48241;SDS011;34041;51.812;4.622;2023-03-12T09:48:31;8.88;;;6.80;;
48241;SDS011;34041;51.812;4.622;2023-03-12T09:51:35;7.85;;;5.85;;
48241;SDS011;34041;51.812;4.622;2023-03-12T09:54:40;9.10;;;6.40;;
48241;SDS011;34041;51.812;4.622;2023-03-12T09:57:40;10.93;;;7.47;;
48241;SDS011;34041;51.812;4.622;2023-03-12T10:00:41;8.45;;;5.07;;
48241;SDS011;34041;51.812;4.622;2023-03-12T10:10:02;8.65;;;4.43;;
48241;SDS011;34041;51.812;4.622;2023-03-12T10:13:12;9.95;;;5.60;;
48241;SDS011;34041;51.812;4.622;2023-03-12T10:22:31;8.88;;;4.53;;
48241;SDS011;34041;51.812;4.622;2023-03-12T10:28:43;9.10;;;5.73;;
48241;SDS011;34041;51.812;4.622;2023-03-12T10:34:59;6.38;;;4.53;;
48241;SDS011;34041;51.812;4.622;2023-03-12T10:38:03;11.35;;;5.28;;
48241;SDS011;34041;51.812;4.622;2023-03-12T10:41:12;11.65;;;5.68;;
48241;SDS011;34041;51.812;4.622;2023-03-12T10:44:18;12.75;;;5.85;;
48241;SDS011;34041;51.812;4.622;2023-03-12T10:50:32;8.25;;;4.15;;
48241;SDS011;34041;51.812;4.622;2023-03-12T10:53:33;13.70;;;5.65;;
48241;SDS011;34041;51.812;4.622;2023-03-12T10:56:39;15.43;;;4.70;;
48241;SDS011;34041;51.812;4.622;2023-03-12T10:59:47;15.45;;;5.97;;
48241;SDS011;34041;51.812;4.622;2023-03-12T11:02:54;14.25;;;4.82;;
48241;SDS011;34041;51.812;4.622;2023-03-12T11:05:57;13.52;;;5.03;;
48241;SDS011;34041;51.812;4.622;2023-03-12T11:09:05;13.43;;;4.82;;
48241;SDS011;34041;51.812;4.622;2023-03-12T11:12:27;13.75;;;5.22;;
48241;SDS011;34041;51.812;4.622;2023-03-12T11:18:34;14.98;;;5.35;;
48241;SDS011;34041;51.812;4.622;2023-03-12T11:21:35;15.73;;;6.25;;
48241;SDS011;34041;51.812;4.622;2023-03-12T11:24:53;14.70;;;4.55;;
48241;SDS011;34041;51.812;4.622;2023-03-12T11:27:55;15.00;;;4.75;;
48241;SDS011;34041;51.812;4.622;2023-03-12T11:30:58;12.02;;;4.90;;
48241;SDS011;34041;51.812;4.622;2023-03-12T11:34:02;17.52;;;5.03;;
48241;SDS011;34041;51.812;4.622;2023-03-12T11:37:10;14.18;;;4.88;;
48241;SDS011;34041;51.812;4.622;2023-03-12T11:40:14;14.43;;;4.97;;
48241;SDS011;34041;51.812;4.622;2023-03-12T11:43:18;14.60;;;5.25;;
48241;SDS011;34041;51.812;4.622;2023-03-12T11:46:34;15.45;;;4.53;;
48241;SDS011;34041;51.812;4.622;2023-03-12T11:50:02;20.65;;;5.60;;
48241;SDS011;34041;51.812;4.622;2023-03-12T12:17:43;16.77;;;5.50;;
48241;SDS011;34041;51.812;4.622;2023-03-12T12:20:57;13.52;;;4.53;;
48241;SDS011;34041;51.812;4.622;2023-03-12T12:24:04;13.07;;;3.88;;
48241;SDS011;34041;51.812;4.622;2023-03-12T12:27:24;17.10;;;5.60;;
48241;SDS011;34041;51.812;4.622;2023-03-12T12:36:46;19.23;;;6.13;;
48241;SDS011;34041;51.812;4.622;2023-03-12T12:39:59;15.73;;;5.30;;
48241;SDS011;34041;51.812;4.622;2023-03-12T12:46:17;16.45;;;4.20;;
48241;SDS011;34041;51.812;4.622;2023-03-12T12:52:19;15.88;;;4.40;;
48241;SDS011;34041;51.812;4.622;2023-03-12T12:55:31;10.95;;;4.63;;
48241;SDS011;34041;51.812;4.622;2023-03-12T13:01:40;18.17;;;5.75;;
48241;SDS011;34041;51.812;4.622;2023-03-12T13:04:41;18.58;;;5.05;;
48241;SDS011;34041;51.812;4.622;2023-03-12T13:07:41;11.00;;;5.03;;
48241;SDS011;34041;51.812;4.622;2023-03-12T13:10:42;14.70;;;4.60;;
48241;SDS011;34041;51.812;4.622;2023-03-12T13:17:08;19.55;;;5.30;;
48241;SDS011;34041;51.812;4.622;2023-03-12T13:20:19;13.10;;;4.45;;
48241;SDS011;34041;51.812;4.622;2023-03-12T13:23:30;13.60;;;4.05;;
48241;SDS011;34041;51.812;4.622;2023-03-12T13:29:50;13.60;;;5.05;;
48241;SDS011;34041;51.812;4.622;2023-03-12T13:36:10;16.73;;;5.33;;
48241;SDS011;34041;51.812;4.622;2023-03-12T13:39:35;12.27;;;4.57;;
48241;SDS011;34041;51.812;4.622;2023-03-12T13:42:36;13.15;;;4.28;;
48241;SDS011;34041;51.812;4.622;2023-03-12T13:48:46;16.67;;;3.95;;
48241;SDS011;34041;51.812;4.622;2023-03-12T13:55:20;12.90;;;3.83;;
48241;SDS011;34041;51.812;4.622;2023-03-12T13:58:21;16.70;;;4.30;;
48241;SDS011;34041;51.812;4.622;2023-03-12T14:01:23;13.52;;;4.03;;
48241;SDS011;34041;51.812;4.622;2023-03-12T14:04:38;13.38;;;3.97;;
48241;SDS011;34041;51.812;4.622;2023-03-12T14:07:50;15.23;;;4.33;;
48241;SDS011;34041;51.812;4.622;2023-03-12T14:20:18;15.68;;;4.65;;
48241;SDS011;34041;51.812;4.622;2023-03-12T14:23:19;15.60;;;4.90;;
48241;SDS011;34041;51.812;4.622;2023-03-12T14:26:22;9.63;;;3.38;;
48241;SDS011;34041;51.812;4.622;2023-03-12T14:32:57;13.57;;;3.88;;
48241;SDS011;34041;51.812;4.622;2023-03-12T14:42:26;12.87;;;3.33;;
48241;SDS011;34041;51.812;4.622;2023-03-12T14:45:27;15.52;;;4.10;;
48241;SDS011;34041;51.812;4.622;2023-03-12T14:48:28;13.15;;;4.53;;
48241;SDS011;34041;51.812;4.622;2023-03-12T14:51:29;13.05;;;4.13;;
48241;SDS011;34041;51.812;4.622;2023-03-12T14:54:34;11.48;;;4.43;;
48241;SDS011;34041;51.812;4.622;2023-03-12T14:57:34;14.37;;;4.03;;
48241;SDS011;34041;51.812;4.622;2023-03-12T15:00:34;13.87;;;4.20;;
48241;SDS011;34041;51.812;4.622;2023-03-12T15:03:42;15.82;;;4.70;;
48241;SDS011;34041;51.812;4.622;2023-03-12T15:06:46;14.93;;;4.68;;
48241;SDS011;34041;51.812;4.622;2023-03-12T15:09:48;18.30;;;5.47;;
48241;SDS011;34041;51.812;4.622;2023-03-12T15:12:50;18.67;;;5.22;;
48241;SDS011;34041;51.812;4.622;2023-03-12T15:15:52;13.80;;;4.15;;
48241;SDS011;34041;51.812;4.622;2023-03-12T15:18:53;17.08;;;4.60;;
48241;SDS011;34041;51.812;4.622;2023-03-12T15:21:53;14.60;;;4.18;;
48241;SDS011;34041;51.812;4.622;2023-03-12T15:24:53;13.27;;;4.43;;
48241;SDS011;34041;51.812;4.622;2023-03-12T15:28:07;20.63;;;4.72;;
48241;SDS011;34041;51.812;4.622;2023-03-12T15:31:22;10.65;;;3.80;;
48241;SDS011;34041;51.812;4.622;2023-03-12T15:34:30;14.20;;;4.82;;
48241;SDS011;34041;51.812;4.622;2023-03-12T15:37:34;17.50;;;4.82;;
48241;SDS011;34041;51.812;4.622;2023-03-12T15:40:39;13.32;;;4.05;;
48241;SDS011;34041;51.812;4.622;2023-03-12T15:43:40;15.20;;;4.82;;
48241;SDS011;34041;51.812;4.622;2023-03-12T15:46:49;14.90;;;5.07;;
48241;SDS011;34041;51.812;4.622;2023-03-12T15:49:51;19.88;;;4.93;;
48241;SDS011;34041;51.812;4.622;2023-03-12T15:59:18;17.25;;;5.22;;
48241;SDS011;34041;51.812;4.622;2023-03-12T16:02:33;18.55;;;5.03;;
48241;SDS011;34041;51.812;4.622;2023-03-12T16:05:36;14.50;;;3.63;;
48241;SDS011;34041;51.812;4.622;2023-03-12T16:08:38;15.93;;;4.82;;
48241;SDS011;34041;51.812;4.622;2023-03-12T16:11:40;21.67;;;6.20;;
48241;SDS011;34041;51.812;4.622;2023-03-12T16:14:40;14.02;;;4.40;;
48241;SDS011;34041;51.812;4.622;2023-03-12T16:17:41;15.02;;;4.68;;
48241;SDS011;34041;51.812;4.622;2023-03-12T16:20:42;13.52;;;3.90;;
48241;SDS011;34041;51.812;4.622;2023-03-12T16:23:42;12.60;;;3.67;;
48241;SDS011;34041;51.812;4.622;2023-03-12T16:26:47;17.10;;;4.87;;
48241;SDS011;34041;51.812;4.622;2023-03-12T16:29:48;12.93;;;4.13;;
48241;SDS011;34041;51.812;4.622;2023-03-12T16:32:48;17.30;;;5.33;;
48241;SDS011;34041;51.812;4.622;2023-03-12T16:35:48;13.87;;;3.73;;
48241;SDS011;34041;51.812;4.622;2023-03-12T16:38:48;13.55;;;4.45;;
48241;SDS011;34041;51.812;4.622;2023-03-12T16:41:49;15.25;;;4.22;;
48241;SDS011;34041;51.812;4.622;2023-03-12T16:44:49;15.10;;;4.82;;
48241;SDS011;34041;51.812;4.622;2023-03-12T16:47:51;14.05;;;4.72;;
48241;SDS011;34041;51.812;4.622;2023-03-12T16:50:53;13.93;;;3.75;;
48241;SDS011;34041;51.812;4.622;2023-03-12T16:53:53;13.43;;;4.70;;
48241;SDS011;34041;51.812;4.622;2023-03-12T16:56:54;15.65;;;4.47;;
48241;SDS011;34041;51.812;4.622;2023-03-12T16:59:54;16.52;;;5.25;;
48241;SDS011;34041;51.812;4.622;2023-03-12T17:02:54;13.53;;;5.23;;
48241;SDS011;34041;51.812;4.622;2023-03-12T17:05:56;13.52;;;4.10;;
48241;SDS011;34041;51.812;4.622;2023-03-12T17:08:57;13.73;;;4.55;;
48241;SDS011;34041;51.812;4.622;2023-03-12T17:11:57;13.98;;;4.97;;
48241;SDS011;34041;51.812;4.622;2023-03-12T17:14:58;15.37;;;5.93;;
48241;SDS011;34041;51.812;4.622;2023-03-12T17:17:59;14.82;;;4.82;;
48241;SDS011;34041;51.812;4.622;2023-03-12T17:21:02;16.40;;;4.20;;
48241;SDS011;34041;51.812;4.622;2023-03-12T17:24:03;17.65;;;4.75;;
48241;SDS011;34041;51.812;4.622;2023-03-12T17:27:03;14.82;;;4.05;;
48241;SDS011;34041;51.812;4.622;2023-03-12T17:30:03;20.10;;;5.40;;
48241;SDS011;34041;51.812;4.622;2023-03-12T17:33:11;20.90;;;6.65;;
48241;SDS011;34041;51.812;4.622;2023-03-12T17:36:12;18.80;;;5.50;;
48241;SDS011;34041;51.812;4.622;2023-03-12T17:39:12;22.67;;;5.82;;
48241;SDS011;34041;51.812;4.622;2023-03-12T17:42:13;19.67;;;5.60;;
48241;SDS011;34041;51.812;4.622;2023-03-12T17:45:13;21.50;;;7.50;;
48241;SDS011;34041;51.812;4.622;2023-03-12T17:48:13;17.85;;;7.18;;
48241;SDS011;34041;51.812;4.622;2023-03-12T17:51:14;27.85;;;9.75;;
48241;SDS011;34041;51.812;4.622;2023-03-12T17:54:14;27.70;;;8.87;;
48241;SDS011;34041;51.812;4.622;2023-03-12T17:57:14;26.23;;;9.90;;
48241;SDS011;34041;51.812;4.622;2023-03-12T18:00:14;28.00;;;8.60;;
48241;SDS011;34041;51.812;4.622;2023-03-12T18:03:16;25.88;;;7.35;;
48241;SDS011;34041;51.812;4.622;2023-03-12T18:06:16;24.27;;;6.47;;
48241;SDS011;34041;51.812;4.622;2023-03-12T18:09:16;20.70;;;6.80;;
48241;SDS011;34041;51.812;4.622;2023-03-12T18:12:16;17.90;;;5.57;;
48241;SDS011;34041;51.812;4.622;2023-03-12T18:15:16;19.63;;;6.43;;
48241;SDS011;34041;51.812;4.622;2023-03-12T18:18:17;17.27;;;6.00;;
48241;SDS011;34041;51.812;4.622;2023-03-12T18:21:17;13.13;;;5.03;;
48241;SDS011;34041;51.812;4.622;2023-03-12T18:24:17;13.52;;;4.60;;
48241;SDS011;34041;51.812;4.622;2023-03-12T18:27:17;12.77;;;5.00;;
48241;SDS011;34041;51.812;4.622;2023-03-12T18:30:18;15.13;;;5.00;;
48241;SDS011;34041;51.812;4.622;2023-03-12T18:33:20;19.42;;;5.60;;
48241;SDS011;34041;51.812;4.622;2023-03-12T18:36:20;13.63;;;4.87;;
48241;SDS011;34041;51.812;4.622;2023-03-12T18:39:20;11.73;;;4.50;;
48241;SDS011;34041;51.812;4.622;2023-03-12T18:42:20;11.77;;;4.20;;
48241;SDS011;34041;51.812;4.622;2023-03-12T18:45:20;12.50;;;3.97;;
48241;SDS011;34041;51.812;4.622;2023-03-12T18:48:21;10.32;;;3.28;;
48241;SDS011;34041;51.812;4.622;2023-03-12T18:51:21;10.70;;;3.27;;
48241;SDS011;34041;51.812;4.622;2023-03-12T18:54:21;8.90;;;3.57;;
48241;SDS011;34041;51.812;4.622;2023-03-12T18:57:22;12.70;;;3.20;;
48241;SDS011;34041;51.812;4.622;2023-03-12T19:00:22;7.85;;;3.28;;
48241;SDS011;34041;51.812;4.622;2023-03-12T19:03:22;12.40;;;3.83;;
48241;SDS011;34041;51.812;4.622;2023-03-12T19:06:23;14.27;;;4.55;;
48241;SDS011;34041;51.812;4.622;2023-03-12T19:09:23;7.70;;;2.50;;
48241;SDS011;34041;51.812;4.622;2023-03-12T19:12:24;12.15;;;3.53;;
48241;SDS011;34041;51.812;4.622;2023-03-12T19:15:24;9.30;;;3.00;;
48241;SDS011;34041;51.812;4.622;2023-03-12T19:18:24;9.05;;;3.58;;
48241;SDS011;34041;51.812;4.622;2023-03-12T19:21:25;9.57;;;3.63;;
48241;SDS011;34041;51.812;4.622;2023-03-12T19:24:25;10.40;;;3.20;;
48241;SDS011;34041;51.812;4.622;2023-03-12T19:27:25;9.33;;;3.20;;
48241;SDS011;34041;51.812;4.622;2023-03-12T19:30:25;8.70;;;2.90;;
48241;SDS011;34041;51.812;4.622;2023-03-12T19:33:29;7.40;;;2.40;;
48241;SDS011;34041;51.812;4.622;2023-03-12T19:36:29;9.18;;;3.22;;
48241;SDS011;34041;51.812;4.622;2023-03-12T19:39:29;10.37;;;2.90;;
48241;SDS011;34041;51.812;4.622;2023-03-12T19:42:30;12.50;;;3.73;;
48241;SDS011;34041;51.812;4.622;2023-03-12T19:45:30;8.05;;;2.50;;
48241;SDS011;34041;51.812;4.622;2023-03-12T19:48:30;13.30;;;3.00;;
48241;SDS011;34041;51.812;4.622;2023-03-12T19:51:31;8.75;;;2.50;;
48241;SDS011;34041;51.812;4.622;2023-03-12T19:54:31;9.05;;;2.38;;
48241;SDS011;34041;51.812;4.622;2023-03-12T19:57:32;10.30;;;4.20;;
48241;SDS011;34041;51.812;4.622;2023-03-12T20:00:32;9.00;;;2.85;;
48241;SDS011;34041;51.812;4.622;2023-03-12T20:03:32;8.98;;;3.13;;